Time;durP1;ratioP1;P1;durP2;ratioP2;P2;SDS_P1;SDS_P2;PMS_P1;PMS_P2;Temp;Humidity;BMP_temperature;BMP_pressure;BME280_temperature;BME280_humidity;BME280_pressure;Samples;Min_cycle;Max_cycle;Signal;HPM_P1;HPM_P2
2021/08/21 00:02:07;;;;;;;11.07;10.27;;;;;;;18.45;84.37;100634.66;5053166;28;20225;-83
2021/08/21 00:04:37;;;;;;;13.70;12.60;;;;;;;18.43;84.42;100631.22;5053237;28;20230;-83
2021/08/21 00:07:04;;;;;;;12.30;11.33;;;;;;;18.41;84.64;100627.81;5052629;28;20255;-83
2021/08/21 00:09:32;;;;;;;13.23;12.23;;;;;;;18.39;84.85;100619.97;5053007;28;20206;-83
2021/08/21 00:11:58;;;;;;;13.77;12.53;;;;;;;18.41;84.45;100635.72;5052209;28;20620;-82
2021/08/21 00:14:25;;;;;;;14.00;13.00;;;;;;;18.40;84.57;100632.25;5052652;28;20248;-82
2021/08/21 00:16:51;;;;;;;14.80;13.70;;;;;;;18.34;84.80;100621.13;5052903;28;20210;-82
2021/08/21 00:19:18;;;;;;;13.10;12.13;;;;;;;18.31;84.84;100611.53;5052685;28;20221;-83
2021/08/21 00:21:45;;;;;;;13.63;12.63;;;;;;;18.27;85.09;100604.69;5052255;28;20202;-83
2021/08/21 00:24:11;;;;;;;14.20;13.07;;;;;;;18.24;85.38;100594.28;5052204;28;20308;-84
2021/08/21 00:26:39;;;;;;;14.10;13.03;;;;;;;18.23;85.27;100600.47;5051978;28;20203;-83
2021/08/21 00:29:06;;;;;;;15.63;14.23;;;;;;;18.22;85.35;100599.63;5050889;28;20201;-83
2021/08/21 00:31:32;;;;;;;14.43;13.33;;;;;;;18.19;85.26;100591.84;5052364;28;20237;-83
2021/08/21 00:33:59;;;;;;;15.33;14.03;;;;;;;18.17;85.47;100591.06;5051794;28;20219;-82
2021/08/21 00:36:26;;;;;;;14.53;13.43;;;;;;;18.16;85.86;100576.16;5052005;28;20217;-82
2021/08/21 00:38:52;;;;;;;16.10;14.80;;;;;;;18.16;86.10;100577.94;5051687;28;20231;-83
2021/08/21 00:41:19;;;;;;;15.03;13.83;;;;;;;18.15;86.14;100570.94;5052121;28;20215;-82
2021/08/21 00:43:47;;;;;;;15.20;14.10;;;;;;;18.14;86.36;100579.81;5051405;28;20230;-82
2021/08/21 00:46:13;;;;;;;15.30;14.07;;;;;;;18.14;85.53;100593.88;5052333;28;20206;-83
2021/08/21 00:48:40;;;;;;;15.77;14.57;;;;;;;18.10;85.82;100583.53;5051409;28;20215;-83
2021/08/21 00:51:06;;;;;;;16.50;15.30;;;;;;;18.08;85.86;100588.88;5051747;28;20206;-83
2021/08/21 00:53:33;;;;;;;15.67;14.27;;;;;;;18.06;85.74;100583.66;5051095;28;20222;-82
2021/08/21 00:56:00;;;;;;;17.57;16.07;;;;;;;18.05;85.92;100578.44;5051201;28;20210;-83
2021/08/21 00:58:28;;;;;;;16.03;14.57;;;;;;;18.02;85.93;100587.38;5051745;28;20225;-84
2021/08/21 01:00:56;;;;;;;16.43;14.93;;;;;;;17.96;86.39;100576.25;5051183;28;20213;-82
2021/08/21 01:03:23;;;;;;;15.47;14.37;;;;;;;17.96;86.03;100585.03;5051372;28;20229;-83
2021/08/21 01:05:49;;;;;;;16.20;15.00;;;;;;;17.98;85.91;100588.47;5050692;28;20739;-83
2021/08/21 01:08:16;;;;;;;14.50;13.33;;;;;;;17.95;85.97;100593.03;5051904;28;20203;-82
2021/08/21 01:10:43;;;;;;;15.77;14.47;;;;;;;17.95;85.61;100599.16;5050659;28;20210;-83
2021/08/21 01:13:09;;;;;;;15.17;13.67;;;;;;;17.95;85.59;100607.09;5050827;28;20205;-83
2021/08/21 01:15:36;;;;;;;14.07;12.97;;;;;;;17.85;85.52;100598.72;5051337;28;20733;-82
2021/08/21 01:18:05;;;;;;;14.37;12.93;;;;;;;17.84;86.56;100575.91;5050376;28;20241;-83
2021/08/21 01:20:31;;;;;;;14.97;13.83;;;;;;;17.79;86.20;100580.50;5050793;28;20210;-83
2021/08/21 01:23:00;;;;;;;13.93;12.93;;;;;;;17.74;86.06;100593.06;5050157;28;20243;-82
2021/08/21 01:25:30;;;;;;;13.27;12.37;;;;;;;17.71;85.52;100598.47;5050738;28;20735;-83
2021/08/21 01:27:58;;;;;;;12.93;11.83;;;;;;;17.69;85.31;100607.41;5050519;28;20202;-83
2021/08/21 01:30:24;;;;;;;13.80;12.80;;;;;;;17.69;85.11;100621.47;5051645;28;20212;-83
2021/08/21 01:32:51;;;;;;;13.23;12.17;;;;;;;17.62;85.16;100620.03;5052713;28;20262;-84
2021/08/21 01:35:17;;;;;;;12.97;12.07;;;;;;;17.60;84.91;100628.03;5051831;28;20229;-84
2021/08/21 01:37:44;;;;;;;13.87;12.87;;;;;;;17.60;85.06;100640.34;5051854;28;20221;-83
2021/08/21 01:40:12;;;;;;;12.73;11.73;;;;;;;17.58;84.77;100639.56;5052039;28;20201;-83
2021/08/21 01:42:38;;;;;;;13.33;12.33;;;;;;;17.54;85.20;100638.00;5052093;28;20296;-84
2021/08/21 01:45:11;;;;;;;12.30;11.37;;;;;;;17.48;84.94;100631.19;5051386;28;20221;-83
2021/08/21 01:47:38;;;;;;;12.83;11.83;;;;;;;17.44;84.77;100642.81;5052142;28;20201;-82
2021/08/21 01:50:08;;;;;;;12.30;11.40;;;;;;;17.40;84.82;100639.47;5052343;28;20702;-84
2021/08/21 01:52:35;;;;;;;11.63;10.73;;;;;;;17.38;84.49;100649.25;5051247;28;20210;-83
2021/08/21 01:55:02;;;;;;;13.00;11.90;;;;;;;17.33;84.99;100643.31;5052429;28;20286;-83
2021/08/21 01:57:29;;;;;;;12.30;11.33;;;;;;;17.32;85.00;100646.84;5052581;28;20675;-84
2021/08/21 01:59:55;;;;;;;13.57;12.57;;;;;;;17.27;84.89;100652.34;5052377;28;20225;-83
2021/08/21 02:02:24;;;;;;;12.20;10.87;;;;;;;17.24;85.16;100643.69;5052224;28;20210;-84
2021/08/21 02:04:51;;;;;;;11.97;10.90;;;;;;;17.23;85.03;100649.91;5051946;28;20237;-84
2021/08/21 02:07:17;;;;;;;11.60;10.80;;;;;;;17.17;85.48;100634.34;5052521;28;20213;-84
2021/08/21 02:09:44;;;;;;;13.03;12.03;;;;;;;17.15;85.68;100620.38;5052810;28;20209;-84
2021/08/21 02:12:15;;;;;;;12.27;11.37;;;;;;;17.18;85.43;100633.41;5052609;28;20209;-83
2021/08/21 02:14:42;;;;;;;12.73;11.73;;;;;;;17.16;85.38;100638.75;5051970;28;20242;-83
2021/08/21 02:17:08;;;;;;;12.00;11.10;;;;;;;17.15;85.25;100649.38;5052102;28;20207;-82
2021/08/21 02:19:36;;;;;;;12.30;11.40;;;;;;;17.14;85.53;100629.19;5051209;28;20234;-83
2021/08/21 02:22:05;;;;;;;11.37;10.37;;;;;;;17.12;85.87;100623.97;5052248;28;20237;-83
2021/08/21 02:24:33;;;;;;;11.97;11.07;;;;;;;17.10;85.83;100620.53;5051298;28;20225;-82
2021/08/21 02:27:01;;;;;;;12.53;11.50;;;;;;;17.06;85.80;100626.88;5052222;28;20205;-84
2021/08/21 02:29:29;;;;;;;11.27;10.50;;;;;;;17.03;85.75;100635.78;5051801;28;20232;-83
2021/08/21 02:31:56;;;;;;;11.27;10.37;;;;;;;17.02;85.47;100641.97;5051556;28;20210;-83
2021/08/21 02:34:22;;;;;;;11.33;10.43;;;;;;;16.96;85.89;100634.31;5051192;28;20278;-84
2021/08/21 02:36:51;;;;;;;10.47;9.70;;;;;;;16.97;85.88;100630.78;5051191;28;20240;-83
2021/08/21 02:39:18;;;;;;;10.77;9.90;;;;;;;16.91;85.94;100624.88;5050151;28;20226;-83
2021/08/21 02:41:44;;;;;;;10.00;9.30;;;;;;;16.84;86.66;100604.06;5051386;28;20217;-83
2021/08/21 02:44:11;;;;;;;10.67;9.77;;;;;;;16.79;86.55;100599.91;5051048;28;20226;-84
2021/08/21 02:46:37;;;;;;;11.70;9.93;;;;;;;16.77;86.75;100594.69;5051647;28;20259;-84
2021/08/21 02:49:04;;;;;;;9.63;8.93;;;;;;;16.77;86.39;100607.84;5051310;28;20206;-82
2021/08/21 02:51:30;;;;;;;10.10;9.33;;;;;;;16.80;86.19;100620.91;5051975;28;20588;-84
2021/08/21 02:53:58;;;;;;;10.07;9.27;;;;;;;16.79;86.33;100616.56;5051746;28;20226;-84
2021/08/21 02:56:24;;;;;;;9.67;8.97;;;;;;;16.78;86.33;100612.19;5051722;28;20205;-82
2021/08/21 02:58:51;;;;;;;9.83;9.03;;;;;;;16.81;86.77;100603.31;5051438;28;20279;-83
2021/08/21 03:01:17;;;;;;;9.90;9.10;;;;;;;16.79;86.87;100597.25;5051518;28;20217;-83
2021/08/21 03:03:44;;;;;;;9.93;9.23;;;;;;;16.78;86.86;100595.53;5054096;28;20264;-83
2021/08/21 03:06:10;;;;;;;10.63;9.93;;;;;;;16.73;86.98;100593.09;5055015;28;20197;-83
2021/08/21 03:08:37;;;;;;;10.13;9.43;;;;;;;16.78;87.13;100584.97;5055372;28;20544;-84
2021/08/21 03:11:04;;;;;;;9.77;8.93;;;;;;;16.82;87.16;100582.19;5055780;28;20203;-83
2021/08/21 03:13:31;;;;;;;11.83;10.83;;;;;;;16.71;87.68;100576.50;5055107;28;20575;-83
2021/08/21 03:15:58;;;;;;;10.50;9.60;;;;;;;16.80;87.77;100569.94;5056202;28;20209;-84
2021/08/21 03:18:24;;;;;;;11.07;10.20;;;;;;;16.85;87.57;100574.16;5055892;28;20691;-83
2021/08/21 03:20:51;;;;;;;11.30;10.47;;;;;;;16.83;87.14;100583.06;5054970;28;20215;-84
2021/08/21 03:23:17;;;;;;;10.43;9.63;;;;;;;16.87;87.27;100592.53;5055288;28;20228;-84
2021/08/21 03:25:44;;;;;;;11.30;10.50;;;;;;;16.87;86.97;100600.44;5055717;28;20209;-83
2021/08/21 03:28:11;;;;;;;11.93;10.93;;;;;;;16.88;87.01;100594.25;5055194;28;20214;-83
2021/08/21 03:30:38;;;;;;;11.97;11.07;;;;;;;16.92;86.77;100611.66;5055117;28;20202;-83
2021/08/21 03:33:07;;;;;;;11.37;10.40;;;;;;;16.91;86.55;100620.50;5055259;28;20206;-83
2021/08/21 03:35:33;;;;;;;11.83;10.93;;;;;;;16.88;86.31;100623.25;5054820;28;20214;-84
2021/08/21 03:38:00;;;;;;;12.10;11.10;;;;;;;16.81;86.41;100627.06;5054804;28;20785;-84
2021/08/21 03:40:26;;;;;;;12.70;11.70;;;;;;;16.77;86.31;100623.69;5056019;28;20221;-83
2021/08/21 03:42:53;;;;;;;10.93;10.03;;;;;;;16.74;86.29;100625.56;5054126;28;20217;-83
2021/08/21 03:45:21;;;;;;;12.07;11.17;;;;;;;16.74;86.64;100617.66;5055503;28;20217;-83
2021/08/21 03:47:47;;;;;;;10.73;9.93;;;;;;;16.74;86.73;100612.41;5054885;28;20687;-84
2021/08/21 03:50:14;;;;;;;11.73;10.80;;;;;;;16.70;86.80;100614.28;5054978;28;20289;-84
2021/08/21 03:52:41;;;;;;;12.53;11.23;;;;;;;16.65;87.03;100603.97;5055494;28;20206;-83
2021/08/21 03:55:08;;;;;;;11.77;10.77;;;;;;;16.60;87.01;100603.28;5055475;28;20221;-84
2021/08/21 03:57:35;;;;;;;11.57;10.57;;;;;;;16.63;86.97;100604.91;5055612;28;20256;-84
2021/08/21 04:00:02;;;;;;;11.17;10.37;;;;;;;16.66;87.28;100602.16;5055457;28;20312;-84
2021/08/21 04:02:29;;;;;;;10.60;9.90;;;;;;;16.65;87.02;100605.75;5054819;28;20208;-83
2021/08/21 04:04:56;;;;;;;11.80;10.80;;;;;;;16.64;87.43;100604.00;5055022;28;20628;-84
2021/08/21 04:07:22;;;;;;;12.17;11.17;;;;;;;16.63;87.48;100602.28;5055019;28;20213;-84
2021/08/21 04:09:49;;;;;;;11.57;10.57;;;;;;;16.62;87.55;100593.53;5055390;28;20621;-85
2021/08/21 04:12:18;;;;;;;10.73;9.83;;;;;;;16.61;87.56;100594.47;5055656;28;20721;-84
2021/08/21 04:14:44;;;;;;;10.37;9.67;;;;;;;16.63;87.34;100603.16;5053865;28;20232;-84
2021/08/21 04:17:11;;;;;;;11.50;10.60;;;;;;;16.63;87.08;100616.34;5053900;28;20268;-84
2021/08/21 04:19:39;;;;;;;11.17;10.23;;;;;;;16.61;86.75;100634.00;5054414;28;20230;-84
2021/08/21 04:22:05;;;;;;;10.80;10.00;;;;;;;16.56;86.57;100638.59;5055378;28;20209;-83
2021/08/21 04:24:32;;;;;;;11.77;10.90;;;;;;;16.53;86.56;100644.00;5055851;28;20282;-84
2021/08/21 04:26:58;;;;;;;10.77;9.87;;;;;;;16.48;86.79;100635.41;5055339;28;20202;-84
2021/08/21 04:29:25;;;;;;;12.47;11.47;;;;;;;16.45;86.46;100646.94;5055435;28;20217;-84
2021/08/21 04:31:51;;;;;;;12.10;11.20;;;;;;;16.46;86.04;100660.97;5055248;28;20235;-83
2021/08/21 04:34:18;;;;;;;10.87;10.00;;;;;;;16.38;85.96;100668.31;5051383;28;20220;-83
2021/08/21 04:36:45;;;;;;;12.13;11.23;;;;;;;16.32;86.34;100658.88;5052014;28;20218;-83
2021/08/21 04:39:13;;;;;;;12.07;11.17;;;;;;;16.28;86.34;100662.53;5051256;28;20232;-84
2021/08/21 04:41:40;;;;;;;10.87;10.07;;;;;;;16.25;86.70;100650.38;5051447;28;20229;-83
2021/08/21 04:44:06;;;;;;;10.77;9.97;;;;;;;16.24;86.46;100648.63;5051252;28;20614;-83
2021/08/21 04:46:35;;;;;;;11.33;10.43;;;;;;;16.18;86.96;100640.97;5051264;28;20278;-83
2021/08/21 04:49:01;;;;;;;11.13;10.27;;;;;;;16.18;87.47;100621.69;5051292;28;20201;-83
2021/08/21 04:51:28;;;;;;;12.23;11.23;;;;;;;16.22;87.44;100628.56;5051430;28;20206;-83
2021/08/21 04:53:55;;;;;;;11.57;10.70;;;;;;;16.28;87.13;100629.16;5050980;28;20224;-83
2021/08/21 04:56:22;;;;;;;12.30;11.30;;;;;;;16.34;87.14;100637.75;5051608;28;20205;-83
2021/08/21 04:58:48;;;;;;;11.17;10.37;;;;;;;16.33;87.46;100625.47;5051104;28;20210;-83
2021/08/21 05:01:16;;;;;;;12.03;11.13;;;;;;;16.34;87.68;100630.69;5051228;28;20207;-83
2021/08/21 05:03:42;;;;;;;11.43;10.43;;;;;;;16.37;87.59;100625.31;5049896;28;20234;-83
2021/08/21 05:06:09;;;;;;;11.50;10.63;;;;;;;16.35;87.82;100621.88;5050693;28;20205;-83
2021/08/21 05:08:35;;;;;;;11.20;10.23;;;;;;;16.36;87.98;100614.81;5050770;28;20212;-83
2021/08/21 05:11:03;;;;;;;11.30;10.40;;;;;;;16.40;87.99;100619.91;5050781;28;20201;-83
2021/08/21 05:13:31;;;;;;;10.83;10.03;;;;;;;16.44;87.75;100628.56;5051331;28;20281;-83
2021/08/21 05:15:57;;;;;;;10.00;9.10;;;;;;;16.43;87.76;100627.69;5051973;28;20206;-84
2021/08/21 05:18:28;;;;;;;10.37;9.60;;;;;;;16.48;87.85;100624.88;5052161;28;20663;-84
2021/08/21 05:21:04;;;;;;;10.70;9.80;;;;;;;16.48;88.34;100609.91;5052332;28;20236;-84
2021/08/21 05:23:30;;;;;;;9.70;8.80;;;;;;;16.51;88.28;100608.06;5051680;28;20229;-83
2021/08/21 05:25:57;;;;;;;8.73;8.13;;;;;;;16.57;88.49;100608.69;5051212;28;20198;-82
2021/08/21 05:28:25;;;;;;;8.77;8.17;;;;;;;16.58;88.43;100602.47;5051591;28;20213;-82
2021/08/21 05:30:52;;;;;;;9.07;8.27;;;;;;;16.60;88.58;100605.91;5051551;28;20201;-83
2021/08/21 05:33:19;;;;;;;9.97;9.17;;;;;;;16.61;88.88;100596.22;5049756;28;20263;-83
2021/08/21 05:35:45;;;;;;;9.53;8.80;;;;;;;16.65;88.88;100592.56;5050440;28;20213;-83
2021/08/21 05:38:12;;;;;;;9.23;8.53;;;;;;;16.68;89.19;100588.00;5052065;28;20205;-83
2021/08/21 05:40:39;;;;;;;11.00;10.20;;;;;;;16.72;88.92;100607.19;5051322;28;20228;-83
2021/08/21 05:43:06;;;;;;;10.00;9.20;;;;;;;16.77;88.63;100612.25;5051676;28;20209;-83
2021/08/21 05:45:34;;;;;;;10.63;9.83;;;;;;;16.76;88.92;100606.13;5050705;28;20205;-82
2021/08/21 05:48:00;;;;;;;10.40;9.57;;;;;;;16.80;88.92;100605.06;5050745;28;20264;-80
2021/08/21 05:50:27;;;;;;;10.00;9.30;;;;;;;16.85;88.82;100611.06;5051382;28;20197;-80
2021/08/21 05:52:53;;;;;;;9.93;9.13;;;;;;;16.89;88.91;100611.78;5051001;28;20209;-79
2021/08/21 05:55:20;;;;;;;9.43;8.73;;;;;;;16.92;88.82;100606.38;5051459;28;20646;-78
2021/08/21 05:57:47;;;;;;;8.93;8.23;;;;;;;16.99;88.67;100623.66;5051756;28;20205;-78
2021/08/21 06:00:14;;;;;;;10.07;9.07;;;;;;;17.00;88.61;100627.16;5050660;28;20225;-79
2021/08/21 06:02:42;;;;;;;10.43;9.73;;;;;;;17.03;88.27;100641.06;5050998;28;20224;-78
2021/08/21 06:05:11;;;;;;;11.63;10.73;;;;;;;17.06;87.89;100647.97;5051633;28;20779;-78
2021/08/21 06:07:37;;;;;;;11.03;10.13;;;;;;;17.03;88.02;100648.97;5051037;28;20213;-80
2021/08/21 06:10:05;;;;;;;12.90;11.67;;;;;;;17.09;88.10;100652.28;5051193;28;20599;-79
2021/08/21 06:12:32;;;;;;;11.97;11.07;;;;;;;17.10;87.93;100664.53;5051379;28;20209;-79
2021/08/21 06:14:58;;;;;;;12.17;11.27;;;;;;;17.15;87.79;100657.28;5050935;28;20271;-79
2021/08/21 06:17:25;;;;;;;13.27;12.33;;;;;;;17.20;87.30;100682.53;5052342;28;20213;-78
2021/08/21 06:19:52;;;;;;;14.30;13.20;;;;;;;17.22;87.18;100682.47;5051190;28;21034;-79
2021/08/21 06:22:19;;;;;;;14.97;13.43;;;;;;;17.20;87.82;100671.97;5050900;28;20298;-78
2021/08/21 06:24:45;;;;;;;13.87;12.87;;;;;;;17.15;88.75;100639.69;5050678;28;20368;-78
2021/08/21 06:27:12;;;;;;;13.53;12.43;;;;;;;17.21;88.89;100625.38;5051827;28;20209;-78
2021/08/21 06:29:38;;;;;;;14.53;13.43;;;;;;;17.21;89.58;100610.41;5051280;28;20210;-78
2021/08/21 06:32:06;;;;;;;16.17;14.67;;;;;;;17.33;88.50;100637.19;5050876;28;20206;-79
2021/08/21 06:34:34;;;;;;;16.40;15.20;;;;;;;17.31;89.19;100616.13;5051838;28;20221;-79
2021/08/21 06:37:02;;;;;;;15.10;14.00;;;;;;;17.16;90.09;100598.31;5051396;28;20198;-78
2021/08/21 06:39:29;;;;;;;16.67;15.13;;;;;;;17.17;90.26;100586.88;5054399;28;20202;-79
2021/08/21 06:41:55;;;;;;;16.30;14.83;;;;;;;16.98;91.22;100565.69;5054744;28;20212;-80
2021/08/21 06:44:22;;;;;;;18.07;16.47;;;;;;;16.79;92.94;100503.19;5055084;28;20226;-79
2021/08/21 06:46:48;;;;;;;16.97;15.67;;;;;;;16.77;93.56;100483.97;5055699;28;20307;-79
2021/08/21 06:49:15;;;;;;;16.63;15.43;;;;;;;16.84;93.46;100489.84;5055815;28;20205;-78
2021/08/21 06:51:41;;;;;;;18.00;16.53;;;;;;;16.97;92.75;100508.63;5055923;28;20217;-80
2021/08/21 06:54:09;;;;;;;15.37;14.00;;;;;;;17.11;92.50;100522.03;5056589;28;20640;-78
2021/08/21 06:56:36;;;;;;;16.43;14.93;;;;;;;17.18;92.37;100522.63;5057265;28;20198;-78
2021/08/21 06:59:02;;;;;;;15.83;14.50;;;;;;;17.30;91.89;100535.25;5057834;28;20205;-77
2021/08/21 07:01:29;;;;;;;14.63;13.53;;;;;;;17.44;91.01;100563.66;5057919;28;20236;-80
2021/08/21 07:03:56;;;;;;;15.87;14.47;;;;;;;17.45;89.50;100631.34;5055065;28;20248;-77
2021/08/21 07:06:22;;;;;;;15.93;14.40;;;;;;;17.63;88.83;100648.16;5054417;28;20202;-78
2021/08/21 07:08:49;;;;;;;17.33;15.93;;;;;;;17.56;87.72;100692.44;5054963;28;20213;-80
2021/08/21 07:11:17;;;;;;;17.10;15.70;;;;;;;17.65;87.64;100683.25;5055496;28;20210;-77
2021/08/21 07:13:45;;;;;;;17.90;16.30;;;;;;;17.65;87.10;100702.59;5054829;28;20225;-79
2021/08/21 07:16:12;;;;;;;17.03;15.43;;;;;;;17.70;87.00;100694.47;5055430;28;20201;-78
2021/08/21 07:18:38;;;;;;;19.07;17.47;;;;;;;17.66;86.75;100722.78;5055536;28;20205;-79
2021/08/21 07:21:05;;;;;;;17.80;16.07;;;;;;;17.69;87.73;100671.63;5053773;28;20230;-78
2021/08/21 07:23:31;;;;;;;20.63;18.33;;;;;;;17.85;87.53;100683.22;5054284;28;20238;-79
2021/08/21 07:25:58;;;;;;;15.67;14.27;;;;;;;17.99;87.62;100685.25;5054514;28;20235;-77
2021/08/21 07:28:25;;;;;;;15.17;13.77;;;;;;;18.11;88.20;100656.56;5054601;28;20211;-78
2021/08/21 07:30:52;;;;;;;14.50;13.10;;;;;;;18.13;88.76;100644.13;5054368;28;20199;-77
2021/08/21 07:33:18;;;;;;;15.57;14.27;;;;;;;18.14;87.82;100664.34;5053060;28;20290;-77
2021/08/21 07:35:45;;;;;;;15.00;13.80;;;;;;;18.20;86.75;100715.13;5054553;28;20635;-78
2021/08/21 07:38:11;;;;;;;18.93;17.37;;;;;;;18.12;85.95;100733.09;5053718;28;20201;-77
2021/08/21 07:40:38;;;;;;;19.37;17.67;;;;;;;18.20;85.66;100764.47;5052617;28;20218;-78
2021/08/21 07:43:04;;;;;;;12.77;11.77;;;;;;;18.14;87.14;100698.69;5053437;28;20205;-78
2021/08/21 07:45:32;;;;;;;21.03;19.10;;;;;;;18.16;85.14;100784.03;5053931;28;20207;-77
2021/08/21 07:47:59;;;;;;;18.07;16.50;;;;;;;18.23;85.59;100770.44;5052985;28;20208;-79
2021/08/21 07:50:25;;;;;;;13.00;11.80;;;;;;;18.24;88.53;100668.28;5053430;28;20213;-78
2021/08/21 07:52:52;;;;;;;14.03;12.73;;;;;;;18.24;89.90;100612.78;5054784;28;20211;-78
2021/08/21 07:55:18;;;;;;;15.77;14.47;;;;;;;18.36;88.62;100659.75;5054076;28;20226;-78
2021/08/21 07:57:45;;;;;;;18.33;16.83;;;;;;;18.48;86.71;100723.53;5052024;28;20255;-78
2021/08/21 08:00:12;;;;;;;19.60;17.80;;;;;;;18.48;83.54;100847.78;5054788;28;20284;-78
2021/08/21 08:02:43;;;;;;;20.00;18.30;;;;;;;18.56;83.22;100853.59;5053963;28;20210;-77
2021/08/21 08:05:10;;;;;;;19.23;17.53;;;;;;;18.58;82.90;100870.25;5054943;28;20236;-78
2021/08/21 08:07:37;;;;;;;18.37;16.87;;;;;;;18.55;82.01;100889.75;5054605;28;20711;-78
2021/08/21 08:10:04;;;;;;;17.53;15.93;;;;;;;18.54;81.85;100903.03;5052779;28;20211;-77
2021/08/21 08:12:30;;;;;;;17.83;16.53;;;;;;;18.62;82.12;100903.53;4702131;28;10000290;-78
2021/08/21 08:14:56;;;;;;;17.97;16.57;;;;;;;18.55;81.04;100932.06;5051345;28;20253;-78
2021/08/21 08:17:24;;;;;;;17.93;16.53;;;;;;;18.58;81.73;100905.47;5050831;28;20709;-78
2021/08/21 08:19:52;;;;;;;17.23;15.83;;;;;;;18.60;83.42;100852.50;5051849;28;20302;-77
2021/08/21 08:22:19;;;;;;;18.30;16.67;;;;;;;18.61;82.50;100878.91;5051611;28;20201;-78
2021/08/21 08:24:47;;;;;;;15.13;13.93;;;;;;;18.71;83.50;100847.59;5050383;28;20241;-78
2021/08/21 08:27:15;;;;;;;16.50;14.83;;;;;;;18.69;82.93;100859.16;5051276;28;20294;-78
2021/08/21 08:29:41;;;;;;;16.17;14.67;;;;;;;18.75;82.28;100894.13;5051801;28;20298;-78
2021/08/21 08:32:08;;;;;;;17.63;16.00;;;;;;;18.88;81.49;100898.88;5050387;28;20676;-77
2021/08/21 08:34:35;;;;;;;18.47;16.77;;;;;;;18.84;81.28;100924.63;5050890;28;20225;-78
2021/08/21 08:37:06;;;;;;;18.57;17.20;;;;;;;18.85;81.30;100937.78;5051809;28;20202;-78
2021/08/21 08:39:32;;;;;;;18.30;16.70;;;;;;;18.96;81.32;100923.19;5050565;28;20295;-78
2021/08/21 08:41:59;;;;;;;17.13;15.77;;;;;;;19.02;80.70;100950.22;5051308;28;20226;-77
2021/08/21 08:44:28;;;;;;;17.03;15.73;;;;;;;19.11;81.09;100927.78;5051011;28;20779;-78
2021/08/21 08:46:55;;;;;;;17.47;16.07;;;;;;;19.16;79.31;100988.44;5052554;28;20209;-79
2021/08/21 08:49:22;;;;;;;17.30;15.80;;;;;;;19.15;79.44;100987.56;5052215;28;20195;-79
2021/08/21 08:51:50;;;;;;;14.83;13.53;;;;;;;19.16;81.75;100912.53;5051963;28;21136;-78
2021/08/21 08:54:18;;;;;;;11.20;10.30;;;;;;;19.16;84.32;100806.66;5051949;28;20228;-78
2021/08/21 08:56:44;;;;;;;12.10;11.00;;;;;;;19.15;86.16;100761.78;5052282;28;20208;-79
2021/08/21 08:59:11;;;;;;;10.10;9.20;;;;;;;19.12;86.31;100749.53;5052539;28;20299;-78
2021/08/21 09:01:40;;;;;;;11.83;10.93;;;;;;;19.20;86.21;100751.81;5051428;28;20227;-78
2021/08/21 09:04:21;;;;;;;15.00;13.67;;;;;;;19.30;83.43;100839.56;5051094;28;20227;-78
2021/08/21 09:06:48;;;;;;;17.57;16.07;;;;;;;19.47;81.08;100924.31;5051126;28;20630;-78
2021/08/21 09:09:16;;;;;;;16.60;15.30;;;;;;;19.69;81.03;100945.31;5050860;28;20203;-78
2021/08/21 09:11:45;;;;;;;18.27;16.77;;;;;;;19.87;78.71;101015.13;5051136;28;20213;-78
2021/08/21 09:14:17;;;;;;;16.67;15.27;;;;;;;19.98;78.16;101049.03;5050466;28;20250;-79
2021/08/21 09:16:44;;;;;;;17.13;15.63;;;;;;;20.10;77.83;101053.75;5050289;28;20212;-79
2021/08/21 09:19:10;;;;;;;16.73;15.37;;;;;;;20.17;78.37;101030.44;5051087;28;20220;-78
2021/08/21 09:21:37;;;;;;;15.43;13.57;;;;;;;20.32;78.29;101023.53;5051509;28;20751;-78
2021/08/21 09:24:23;;;;;;;14.83;13.73;;;;;;;20.41;80.25;100938.19;5050263;28;20234;-78
2021/08/21 09:26:51;;;;;;;16.80;15.30;;;;;;;20.52;78.19;101023.38;5051020;28;20199;-78
2021/08/21 09:29:26;;;;;;;15.57;14.37;;;;;;;20.56;77.64;101046.16;5051451;28;20209;-79
2021/08/21 09:32:04;;;;;;;16.13;14.93;;;;;;;20.60;76.71;101071.59;5050599;28;20783;-78
2021/08/21 09:34:31;;;;;;;15.67;14.27;;;;;;;20.65;76.31;101089.09;5050804;28;20224;-78
2021/08/21 09:36:57;;;;;;;15.33;14.07;;;;;;;20.62;76.69;101064.44;5050269;28;20198;-79
2021/08/21 09:39:34;;;;;;;15.67;14.37;;;;;;;20.70;75.88;101089.72;5051274;28;20204;-78
2021/08/21 09:42:04;;;;;;;14.63;13.33;;;;;;;20.77;75.63;101110.56;5050410;28;20289;-79
2021/08/21 09:44:32;;;;;;;14.50;13.33;;;;;;;20.83;76.62;101059.81;5050865;28;20220;-78
2021/08/21 09:47:19;;;;;;;14.60;13.47;;;;;;;20.90;73.52;101171.81;5050745;28;20216;-79
2021/08/21 09:49:46;;;;;;;14.87;13.67;;;;;;;20.88;73.26;101208.19;5050938;28;20319;-79
2021/08/21 09:52:14;;;;;;;15.30;13.97;;;;;;;20.98;74.71;101136.94;5051051;28;20307;-79
2021/08/21 09:54:43;;;;;;;14.83;13.73;;;;;;;21.08;73.84;101156.75;5051592;28;20235;-79
2021/08/21 09:57:13;;;;;;;14.13;13.03;;;;;;;21.13;72.98;101209.59;5050572;28;20666;-78
2021/08/21 09:59:41;;;;;;;15.97;14.77;;;;;;;21.21;73.24;101200.31;5047790;28;20223;-78
2021/08/21 10:02:09;;;;;;;10.93;10.03;;;;;;;21.22;74.92;101110.91;5048800;28;20275;-77
2021/08/21 10:04:37;;;;;;;10.20;9.40;;;;;;;21.35;76.12;101077.44;5048030;28;20235;-77
2021/08/21 10:07:05;;;;;;;10.67;9.87;;;;;;;21.54;77.33;101028.66;5048334;28;20209;-78
2021/08/21 10:09:33;;;;;;;12.93;11.93;;;;;;;21.65;74.35;101111.28;5048556;28;20205;-78
2021/08/21 10:12:00;;;;;;;13.50;12.33;;;;;;;21.86;73.05;101180.16;5049573;28;20290;-77
2021/08/21 10:14:30;;;;;;;13.27;12.17;;;;;;;21.70;67.95;101401.53;5055672;28;20276;-79
2021/08/21 10:16:57;;;;;;;13.83;12.57;;;;;;;21.72;69.25;101341.19;5055354;28;20208;-78
2021/08/21 10:19:24;;;;;;;13.40;12.40;;;;;;;21.64;65.96;101408.97;5056301;28;20208;-78
2021/08/21 10:21:52;;;;;;;14.47;13.43;;;;;;;21.30;67.96;101423.88;5056864;28;20232;-77
2021/08/21 10:24:30;;;;;;;13.27;12.27;;;;;;;21.54;69.29;101327.06;5055983;28;20236;-78
2021/08/21 10:27:02;;;;;;;13.77;12.67;;;;;;;21.66;69.04;101332.69;5056216;28;20243;-77
2021/08/21 10:29:30;;;;;;;13.90;12.90;;;;;;;21.73;67.12;101385.44;5056570;28;20203;-78
2021/08/21 10:31:57;;;;;;;15.30;14.30;;;;;;;21.68;64.80;101509.72;5055763;28;20208;-77
2021/08/21 10:34:24;;;;;;;15.07;13.97;;;;;;;21.74;64.71;101497.94;5056427;28;20221;-79
2021/08/21 10:36:53;;;;;;;14.33;13.33;;;;;;;21.63;64.39;101498.47;5055574;28;20212;-78
2021/08/21 10:39:23;;;;;;;16.97;14.40;;;;;;;21.52;64.85;101472.38;5056651;28;20205;-78
2021/08/21 10:41:51;;;;;;;16.23;14.90;;;;;;;21.57;64.09;101509.38;5056202;28;20297;-78
2021/08/21 10:44:42;;;;;;;14.03;13.03;;;;;;;21.72;65.69;101452.81;5056322;28;20278;-78
2021/08/21 10:47:09;;;;;;;13.33;12.43;;;;;;;21.82;66.62;101418.66;5056304;28;20270;-78
2021/08/21 10:49:47;;;;;;;11.20;10.40;;;;;;;21.94;69.50;101290.47;5057178;28;20209;-79
2021/08/21 10:52:51;;;;;;;14.80;13.77;;;;;;;22.04;64.25;101489.38;5057094;28;20197;-78
2021/08/21 10:55:21;;;;;;;11.47;10.67;;;;;;;22.22;67.99;101328.88;5056873;28;20339;-78
2021/08/21 10:58:11;;;;;;;12.13;11.30;;;;;;;22.53;67.82;101357.34;5056026;28;20709;-79
2021/08/21 11:01:03;;;;;;;120.53;43.47;;;;;;;22.80;66.35;101418.03;5051033;28;20221;-78
2021/08/21 11:03:50;;;;;;;12.10;11.27;;;;;;;22.96;63.95;101498.78;5054905;28;20277;-77
2021/08/21 11:06:29;;;;;;;14.27;12.80;;;;;;;23.29;66.96;101366.47;5053366;28;20205;-77
2021/08/21 11:09:10;;;;;;;12.57;11.77;;;;;;;23.63;62.21;101540.44;5052119;28;20309;-76
2021/08/21 11:11:40;;;;;;;11.90;11.10;;;;;;;23.80;61.54;101607.06;5051738;28;20211;-77
2021/08/21 11:14:09;;;;;;;11.77;10.93;;;;;;;23.99;62.89;101506.38;5052114;28;20613;-77
2021/08/21 11:16:49;;;;;;;11.23;10.30;;;;;;;24.17;61.10;101603.16;5052245;28;20721;-77